sensor_id;sensor_type;location;lat;lon;timestamp;temperature;humidity
8231;DHT22;4156;50.908;6.974;2023-03-04T00:01:36;4.70;99.90
8231;DHT22;4156;50.908;6.974;2023-03-04T00:04:02;4.70;99.90
8231;DHT22;4156;50.908;6.974;2023-03-04T00:06:28;4.70;99.90
8231;DHT22;4156;50.908;6.974;2023-03-04T00:08:53;4.70;99.90
8231;DHT22;4156;50.908;6.974;2023-03-04T00:11:19;4.70;99.90
8231;DHT22;4156;50.908;6.974;2023-03-04T00:13:44;4.70;99.90
8231;DHT22;4156;50.908;6.974;2023-03-04T00:16:10;4.70;99.90
8231;DHT22;4156;50.908;6.974;2023-03-04T00:18:35;4.70;99.90
8231;DHT22;4156;50.908;6.974;2023-03-04T00:21:01;4.70;99.90
8231;DHT22;4156;50.908;6.974;2023-03-04T00:23:26;4.70;99.90
8231;DHT22;4156;50.908;6.974;2023-03-04T00:25:52;4.80;99.90
8231;DHT22;4156;50.908;6.974;2023-03-04T00:28:18;4.70;99.90
8231;DHT22;4156;50.908;6.974;2023-03-04T00:30:43;4.80;99.90
8231;DHT22;4156;50.908;6.974;2023-03-04T00:33:09;4.80;99.90
8231;DHT22;4156;50.908;6.974;2023-03-04T00:35:34;4.70;99.90
8231;DHT22;4156;50.908;6.974;2023-03-04T00:38:00;4.80;99.90
8231;DHT22;4156;50.908;6.974;2023-03-04T00:40:26;4.80;99.90
8231;DHT22;4156;50.908;6.974;2023-03-04T00:42:51;4.80;99.90
8231;DHT22;4156;50.908;6.974;2023-03-04T00:45:17;4.80;99.90
8231;DHT22;4156;50.908;6.974;2023-03-04T00:47:43;4.80;99.90
8231;DHT22;4156;50.908;6.974;2023-03-04T00:50:09;4.80;99.90
8231;DHT22;4156;50.908;6.974;2023-03-04T00:52:34;4.80;99.90
8231;DHT22;4156;50.908;6.974;2023-03-04T00:55:00;4.80;99.90
8231;DHT22;4156;50.908;6.974;2023-03-04T00:57:25;4.80;99.90
8231;DHT22;4156;50.908;6.974;2023-03-04T00:59:51;4.80;99.90
8231;DHT22;4156;50.908;6.974;2023-03-04T01:02:16;4.80;99.90
8231;DHT22;4156;50.908;6.974;2023-03-04T01:04:42;4.80;99.90
8231;DHT22;4156;50.908;6.974;2023-03-04T01:07:08;4.80;99.90
8231;DHT22;4156;50.908;6.974;2023-03-04T01:09:33;4.80;99.90
8231;DHT22;4156;50.908;6.974;2023-03-04T01:11:59;4.80;99.90
8231;DHT22;4156;50.908;6.974;2023-03-04T01:14:24;4.80;99.90
8231;DHT22;4156;50.908;6.974;2023-03-04T01:16:50;4.80;99.90
8231;DHT22;4156;50.908;6.974;2023-03-04T01:19:16;4.80;99.90
8231;DHT22;4156;50.908;6.974;2023-03-04T01:21:41;4.80;99.90
8231;DHT22;4156;50.908;6.974;2023-03-04T01:24:07;4.80;99.90
8231;DHT22;4156;50.908;6.974;2023-03-04T01:26:33;4.80;99.90
8231;DHT22;4156;50.908;6.974;2023-03-04T01:28:58;4.80;99.90
8231;DHT22;4156;50.908;6.974;2023-03-04T01:31:24;4.80;99.90
8231;DHT22;4156;50.908;6.974;2023-03-04T01:33:49;4.80;99.90
8231;DHT22;4156;50.908;6.974;2023-03-04T01:36:15;4.80;99.90
8231;DHT22;4156;50.908;6.974;2023-03-04T01:38:40;4.80;99.90
8231;DHT22;4156;50.908;6.974;2023-03-04T01:41:06;4.80;99.90
8231;DHT22;4156;50.908;6.974;2023-03-04T01:43:34;4.80;99.90
8231;DHT22;4156;50.908;6.974;2023-03-04T01:46:01;4.80;99.90
8231;DHT22;4156;50.908;6.974;2023-03-04T01:48:31;4.80;99.90
8231;DHT22;4156;50.908;6.974;2023-03-04T01:50:58;4.90;99.90
8231;DHT22;4156;50.908;6.974;2023-03-04T01:53:28;4.90;99.90
8231;DHT22;4156;50.908;6.974;2023-03-04T01:56:02;4.90;99.90
8231;DHT22;4156;50.908;6.974;2023-03-04T01:58:35;4.90;99.90
8231;DHT22;4156;50.908;6.974;2023-03-04T02:01:00;4.90;99.90
8231;DHT22;4156;50.908;6.974;2023-03-04T02:03:26;4.90;99.90
8231;DHT22;4156;50.908;6.974;2023-03-04T02:05:52;4.90;99.90
8231;DHT22;4156;50.908;6.974;2023-03-04T02:08:21;4.90;99.90
8231;DHT22;4156;50.908;6.974;2023-03-04T02:10:47;5.00;99.90
8231;DHT22;4156;50.908;6.974;2023-03-04T02:13:13;4.90;99.90
8231;DHT22;4156;50.908;6.974;2023-03-04T02:15:40;5.00;99.90
8231;DHT22;4156;50.908;6.974;2023-03-04T02:18:20;5.00;99.90
8231;DHT22;4156;50.908;6.974;2023-03-04T02:26:22;5.00;99.90
8231;DHT22;4156;50.908;6.974;2023-03-04T02:28:50;5.00;99.90
8231;DHT22;4156;50.908;6.974;2023-03-04T02:31:29;5.00;99.90
8231;DHT22;4156;50.908;6.974;2023-03-04T02:33:57;5.00;99.90
8231;DHT22;4156;50.908;6.974;2023-03-04T02:36:23;5.00;99.90
8231;DHT22;4156;50.908;6.974;2023-03-04T02:38:51;5.00;99.90
8231;DHT22;4156;50.908;6.974;2023-03-04T02:41:20;5.00;99.90
8231;DHT22;4156;50.908;6.974;2023-03-04T02:43:50;5.00;99.90
8231;DHT22;4156;50.908;6.974;2023-03-04T02:46:16;5.00;99.90
8231;DHT22;4156;50.908;6.974;2023-03-04T02:48:42;5.00;99.90
8231;DHT22;4156;50.908;6.974;2023-03-04T02:51:07;5.10;99.90
8231;DHT22;4156;50.908;6.974;2023-03-04T02:53:33;5.10;99.90
8231;DHT22;4156;50.908;6.974;2023-03-04T02:55:58;5.10;99.90
8231;DHT22;4156;50.908;6.974;2023-03-04T02:58:24;5.00;99.90
8231;DHT22;4156;50.908;6.974;2023-03-04T03:00:49;5.10;99.90
8231;DHT22;4156;50.908;6.974;2023-03-04T03:03:15;5.10;99.90
8231;DHT22;4156;50.908;6.974;2023-03-04T03:05:40;5.10;99.90
8231;DHT22;4156;50.908;6.974;2023-03-04T03:08:06;5.10;99.90
8231;DHT22;4156;50.908;6.974;2023-03-04T03:10:32;5.10;99.90
8231;DHT22;4156;50.908;6.974;2023-03-04T03:12:58;5.10;99.90
8231;DHT22;4156;50.908;6.974;2023-03-04T03:15:23;5.10;99.90
8231;DHT22;4156;50.908;6.974;2023-03-04T03:17:49;5.10;99.90
8231;DHT22;4156;50.908;6.974;2023-03-04T03:20:15;5.10;99.90
8231;DHT22;4156;50.908;6.974;2023-03-04T03:22:41;5.10;99.90
8231;DHT22;4156;50.908;6.974;2023-03-04T03:25:08;5.10;99.90
8231;DHT22;4156;50.908;6.974;2023-03-04T03:27:34;5.10;99.90
8231;DHT22;4156;50.908;6.974;2023-03-04T03:29:59;5.10;99.90
8231;DHT22;4156;50.908;6.974;2023-03-04T03:32:25;5.10;99.90
8231;DHT22;4156;50.908;6.974;2023-03-04T03:34:51;5.10;99.90
8231;DHT22;4156;50.908;6.974;2023-03-04T03:37:17;5.10;99.90
8231;DHT22;4156;50.908;6.974;2023-03-04T03:39:42;5.20;99.90
8231;DHT22;4156;50.908;6.974;2023-03-04T03:42:08;5.20;99.90
8231;DHT22;4156;50.908;6.974;2023-03-04T03:44:33;5.20;99.90
8231;DHT22;4156;50.908;6.974;2023-03-04T03:46:59;5.20;99.90
8231;DHT22;4156;50.908;6.974;2023-03-04T03:49:25;5.20;99.90
8231;DHT22;4156;50.908;6.974;2023-03-04T03:51:50;5.20;99.90
8231;DHT22;4156;50.908;6.974;2023-03-04T03:54:16;5.20;99.90
8231;DHT22;4156;50.908;6.974;2023-03-04T03:56:41;5.20;99.90
8231;DHT22;4156;50.908;6.974;2023-03-04T03:59:07;5.20;99.90
8231;DHT22;4156;50.908;6.974;2023-03-04T04:01:32;5.20;99.90
8231;DHT22;4156;50.908;6.974;2023-03-04T04:03:59;5.20;99.90
8231;DHT22;4156;50.908;6.974;2023-03-04T04:06:25;5.20;99.90
8231;DHT22;4156;50.908;6.974;2023-03-04T04:08:50;5.20;99.90
8231;DHT22;4156;50.908;6.974;2023-03-04T04:11:16;5.20;99.90
8231;DHT22;4156;50.908;6.974;2023-03-04T04:13:42;5.30;99.90
8231;DHT22;4156;50.908;6.974;2023-03-04T04:16:08;5.20;99.90
8231;DHT22;4156;50.908;6.974;2023-03-04T04:18:34;5.20;99.90
8231;DHT22;4156;50.908;6.974;2023-03-04T04:20:59;5.20;99.90
8231;DHT22;4156;50.908;6.974;2023-03-04T04:23:25;5.80;99.90
8231;DHT22;4156;50.908;6.974;2023-03-04T04:25:53;5.20;99.90
8231;DHT22;4156;50.908;6.974;2023-03-04T04:28:19;5.20;99.90
8231;DHT22;4156;50.908;6.974;2023-03-04T04:30:44;5.20;99.90
8231;DHT22;4156;50.908;6.974;2023-03-04T04:33:10;5.20;99.90
8231;DHT22;4156;50.908;6.974;2023-03-04T04:35:36;5.20;99.90
8231;DHT22;4156;50.908;6.974;2023-03-04T04:38:03;5.20;99.90
8231;DHT22;4156;50.908;6.974;2023-03-04T04:40:29;5.30;99.90
8231;DHT22;4156;50.908;6.974;2023-03-04T04:42:55;5.30;99.90
8231;DHT22;4156;50.908;6.974;2023-03-04T04:45:21;5.30;99.90
8231;DHT22;4156;50.908;6.974;2023-03-04T04:47:49;5.30;99.90
8231;DHT22;4156;50.908;6.974;2023-03-04T04:50:15;5.30;99.90
8231;DHT22;4156;50.908;6.974;2023-03-04T04:52:40;5.30;99.90
8231;DHT22;4156;50.908;6.974;2023-03-04T04:55:06;5.30;99.90
8231;DHT22;4156;50.908;6.974;2023-03-04T04:57:33;5.30;99.90
8231;DHT22;4156;50.908;6.974;2023-03-04T04:59:58;5.30;99.90
8231;DHT22;4156;50.908;6.974;2023-03-04T05:02:24;5.30;99.90
8231;DHT22;4156;50.908;6.974;2023-03-04T05:04:49;5.30;99.90
8231;DHT22;4156;50.908;6.974;2023-03-04T05:07:15;5.30;99.90
8231;DHT22;4156;50.908;6.974;2023-03-04T05:09:41;5.40;99.90
8231;DHT22;4156;50.908;6.974;2023-03-04T05:12:06;5.40;99.90
8231;DHT22;4156;50.908;6.974;2023-03-04T05:14:32;5.40;99.90
8231;DHT22;4156;50.908;6.974;2023-03-04T05:16:57;5.40;99.90
8231;DHT22;4156;50.908;6.974;2023-03-04T05:19:23;5.40;99.90
8231;DHT22;4156;50.908;6.974;2023-03-04T05:21:48;5.40;99.90
8231;DHT22;4156;50.908;6.974;2023-03-04T05:24:14;5.40;99.90
8231;DHT22;4156;50.908;6.974;2023-03-04T05:26:40;5.40;99.90
8231;DHT22;4156;50.908;6.974;2023-03-04T05:29:05;5.40;99.90
8231;DHT22;4156;50.908;6.974;2023-03-04T05:31:31;5.40;99.90
8231;DHT22;4156;50.908;6.974;2023-03-04T05:33:56;5.50;99.90
8231;DHT22;4156;50.908;6.974;2023-03-04T05:36:22;5.50;99.90
8231;DHT22;4156;50.908;6.974;2023-03-04T05:38:47;5.50;99.90
8231;DHT22;4156;50.908;6.974;2023-03-04T05:41:13;5.50;99.90
8231;DHT22;4156;50.908;6.974;2023-03-04T05:43:38;5.50;99.90
8231;DHT22;4156;50.908;6.974;2023-03-04T05:46:08;5.50;99.90
8231;DHT22;4156;50.908;6.974;2023-03-04T05:48:36;5.40;99.90
8231;DHT22;4156;50.908;6.974;2023-03-04T05:51:01;5.50;99.90
8231;DHT22;4156;50.908;6.974;2023-03-04T05:53:28;5.50;99.90
8231;DHT22;4156;50.908;6.974;2023-03-04T05:55:53;5.50;99.90
8231;DHT22;4156;50.908;6.974;2023-03-04T05:58:19;5.50;99.90
8231;DHT22;4156;50.908;6.974;2023-03-04T06:00:46;5.50;99.90
8231;DHT22;4156;50.908;6.974;2023-03-04T06:03:19;5.50;99.90
8231;DHT22;4156;50.908;6.974;2023-03-04T06:05:45;5.50;99.90
8231;DHT22;4156;50.908;6.974;2023-03-04T06:08:11;5.50;99.90
8231;DHT22;4156;50.908;6.974;2023-03-04T06:10:38;5.60;99.90
8231;DHT22;4156;50.908;6.974;2023-03-04T06:13:04;5.60;99.90
8231;DHT22;4156;50.908;6.974;2023-03-04T06:15:30;5.60;99.90
8231;DHT22;4156;50.908;6.974;2023-03-04T06:17:56;5.60;99.90
8231;DHT22;4156;50.908;6.974;2023-03-04T06:20:22;5.60;99.90
8231;DHT22;4156;50.908;6.974;2023-03-04T06:22:47;5.60;99.90
8231;DHT22;4156;50.908;6.974;2023-03-04T06:25:13;5.60;99.90
8231;DHT22;4156;50.908;6.974;2023-03-04T06:27:39;5.60;99.90
8231;DHT22;4156;50.908;6.974;2023-03-04T06:30:05;5.60;99.90
8231;DHT22;4156;50.908;6.974;2023-03-04T06:32:31;5.70;99.90
8231;DHT22;4156;50.908;6.974;2023-03-04T06:34:56;5.60;99.90
8231;DHT22;4156;50.908;6.974;2023-03-04T06:37:22;5.70;99.90
8231;DHT22;4156;50.908;6.974;2023-03-04T06:39:47;5.60;99.90
8231;DHT22;4156;50.908;6.974;2023-03-04T06:42:14;5.70;99.90
8231;DHT22;4156;50.908;6.974;2023-03-04T06:44:39;5.70;99.90
8231;DHT22;4156;50.908;6.974;2023-03-04T06:47:05;5.70;99.90
8231;DHT22;4156;50.908;6.974;2023-03-04T06:49:31;5.70;99.90
8231;DHT22;4156;50.908;6.974;2023-03-04T06:51:56;5.70;99.90
8231;DHT22;4156;50.908;6.974;2023-03-04T06:54:22;5.70;99.90
8231;DHT22;4156;50.908;6.974;2023-03-04T06:56:47;5.70;99.90
8231;DHT22;4156;50.908;6.974;2023-03-04T06:59:13;5.70;99.90
8231;DHT22;4156;50.908;6.974;2023-03-04T07:01:38;5.70;99.90
8231;DHT22;4156;50.908;6.974;2023-03-04T07:04:04;5.70;99.90
8231;DHT22;4156;50.908;6.974;2023-03-04T07:06:30;5.70;99.90
8231;DHT22;4156;50.908;6.974;2023-03-04T07:08:56;5.70;99.90
8231;DHT22;4156;50.908;6.974;2023-03-04T07:11:22;5.70;99.90
8231;DHT22;4156;50.908;6.974;2023-03-04T07:13:48;5.70;99.90
8231;DHT22;4156;50.908;6.974;2023-03-04T07:16:18;5.70;99.90
8231;DHT22;4156;50.908;6.974;2023-03-04T07:18:44;5.70;99.90
8231;DHT22;4156;50.908;6.974;2023-03-04T07:21:10;5.70;99.90
8231;DHT22;4156;50.908;6.974;2023-03-04T07:23:36;5.70;99.90
8231;DHT22;4156;50.908;6.974;2023-03-04T07:26:02;5.70;99.90
8231;DHT22;4156;50.908;6.974;2023-03-04T07:28:28;5.70;99.90
8231;DHT22;4156;50.908;6.974;2023-03-04T07:30:54;5.80;99.90
8231;DHT22;4156;50.908;6.974;2023-03-04T07:33:19;5.80;99.90
8231;DHT22;4156;50.908;6.974;2023-03-04T07:35:45;5.80;99.90
8231;DHT22;4156;50.908;6.974;2023-03-04T07:38:10;5.80;99.90
8231;DHT22;4156;50.908;6.974;2023-03-04T07:40:36;5.80;99.90
8231;DHT22;4156;50.908;6.974;2023-03-04T07:43:02;5.80;99.90
8231;DHT22;4156;50.908;6.974;2023-03-04T07:45:28;5.80;99.90
8231;DHT22;4156;50.908;6.974;2023-03-04T07:47:53;5.90;99.90
8231;DHT22;4156;50.908;6.974;2023-03-04T07:50:19;5.90;99.90
8231;DHT22;4156;50.908;6.974;2023-03-04T07:52:46;5.80;99.90
8231;DHT22;4156;50.908;6.974;2023-03-04T07:55:14;5.80;99.90
8231;DHT22;4156;50.908;6.974;2023-03-04T07:57:41;5.80;99.90
8231;DHT22;4156;50.908;6.974;2023-03-04T08:00:08;5.90;99.90
8231;DHT22;4156;50.908;6.974;2023-03-04T08:02:34;5.90;99.90
8231;DHT22;4156;50.908;6.974;2023-03-04T08:05:00;5.90;99.90
8231;DHT22;4156;50.908;6.974;2023-03-04T08:07:25;5.90;99.90
8231;DHT22;4156;50.908;6.974;2023-03-04T08:09:51;5.90;99.90
8231;DHT22;4156;50.908;6.974;2023-03-04T08:12:17;5.90;99.90
8231;DHT22;4156;50.908;6.974;2023-03-04T08:14:42;5.90;99.90
8231;DHT22;4156;50.908;6.974;2023-03-04T08:17:08;5.90;99.90
8231;DHT22;4156;50.908;6.974;2023-03-04T08:19:34;5.90;99.90
8231;DHT22;4156;50.908;6.974;2023-03-04T08:22:00;5.90;99.90
8231;DHT22;4156;50.908;6.974;2023-03-04T08:24:26;5.90;99.90
8231;DHT22;4156;50.908;6.974;2023-03-04T08:26:51;5.90;99.90
8231;DHT22;4156;50.908;6.974;2023-03-04T08:29:19;6.00;99.90
8231;DHT22;4156;50.908;6.974;2023-03-04T08:31:49;6.00;99.90
8231;DHT22;4156;50.908;6.974;2023-03-04T08:34:16;6.00;99.90
8231;DHT22;4156;50.908;6.974;2023-03-04T08:36:42;6.00;99.90
8231;DHT22;4156;50.908;6.974;2023-03-04T08:39:08;6.00;99.90
8231;DHT22;4156;50.908;6.974;2023-03-04T08:41:34;6.00;99.90
8231;DHT22;4156;50.908;6.974;2023-03-04T08:44:00;6.00;99.90
8231;DHT22;4156;50.908;6.974;2023-03-04T08:46:25;6.10;99.90
8231;DHT22;4156;50.908;6.974;2023-03-04T08:48:51;6.00;99.90
8231;DHT22;4156;50.908;6.974;2023-03-04T08:51:17;6.10;99.90
8231;DHT22;4156;50.908;6.974;2023-03-04T08:53:43;6.10;99.90
8231;DHT22;4156;50.908;6.974;2023-03-04T08:56:09;6.10;99.90
8231;DHT22;4156;50.908;6.974;2023-03-04T08:58:35;6.10;99.90
8231;DHT22;4156;50.908;6.974;2023-03-04T09:01:02;6.10;99.90
8231;DHT22;4156;50.908;6.974;2023-03-04T09:03:28;6.10;99.90
8231;DHT22;4156;50.908;6.974;2023-03-04T09:05:54;6.10;99.90
8231;DHT22;4156;50.908;6.974;2023-03-04T09:08:20;6.10;99.90
8231;DHT22;4156;50.908;6.974;2023-03-04T09:10:50;6.20;99.90
8231;DHT22;4156;50.908;6.974;2023-03-04T09:13:16;6.20;99.90
8231;DHT22;4156;50.908;6.974;2023-03-04T09:15:45;6.10;99.90
8231;DHT22;4156;50.908;6.974;2023-03-04T09:18:11;6.10;99.90
8231;DHT22;4156;50.908;6.974;2023-03-04T09:20:37;6.20;99.90
8231;DHT22;4156;50.908;6.974;2023-03-04T09:23:03;6.20;99.90
8231;DHT22;4156;50.908;6.974;2023-03-04T09:25:28;6.20;99.90
8231;DHT22;4156;50.908;6.974;2023-03-04T09:27:54;6.20;99.90
8231;DHT22;4156;50.908;6.974;2023-03-04T09:30:20;6.20;99.90
8231;DHT22;4156;50.908;6.974;2023-03-04T09:32:45;6.20;99.90
8231;DHT22;4156;50.908;6.974;2023-03-04T09:35:11;6.90;99.90
8231;DHT22;4156;50.908;6.974;2023-03-04T09:37:36;6.30;99.90
8231;DHT22;4156;50.908;6.974;2023-03-04T09:40:03;6.30;99.90
8231;DHT22;4156;50.908;6.974;2023-03-04T09:42:36;6.30;99.90
8231;DHT22;4156;50.908;6.974;2023-03-04T09:45:05;6.30;99.90
8231;DHT22;4156;50.908;6.974;2023-03-04T09:47:33;6.30;99.90
8231;DHT22;4156;50.908;6.974;2023-03-04T09:50:03;6.40;99.90
8231;DHT22;4156;50.908;6.974;2023-03-04T09:55:24;6.40;99.90
8231;DHT22;4156;50.908;6.974;2023-03-04T10:03:20;6.40;99.90
8231;DHT22;4156;50.908;6.974;2023-03-04T10:06:04;6.40;99.90
8231;DHT22;4156;50.908;6.974;2023-03-04T10:11:32;6.40;99.90
8231;DHT22;4156;50.908;6.974;2023-03-04T10:16:47;6.40;99.90
8231;DHT22;4156;50.908;6.974;2023-03-04T10:21:44;6.40;99.90
8231;DHT22;4156;50.908;6.974;2023-03-04T10:24:24;6.40;99.90
8231;DHT22;4156;50.908;6.974;2023-03-04T10:27:01;6.40;99.90
8231;DHT22;4156;50.908;6.974;2023-03-04T10:29:29;6.40;99.90
8231;DHT22;4156;50.908;6.974;2023-03-04T10:31:55;6.40;99.90
8231;DHT22;4156;50.908;6.974;2023-03-04T10:34:21;6.50;99.90
8231;DHT22;4156;50.908;6.974;2023-03-04T10:37:05;6.50;99.90
8231;DHT22;4156;50.908;6.974;2023-03-04T10:39:34;6.50;99.90
8231;DHT22;4156;50.908;6.974;2023-03-04T10:42:08;6.50;99.90
8231;DHT22;4156;50.908;6.974;2023-03-04T10:44:55;6.50;99.90
8231;DHT22;4156;50.908;6.974;2023-03-04T10:47:27;6.60;99.90
8231;DHT22;4156;50.908;6.974;2023-03-04T10:49:55;6.60;99.90
8231;DHT22;4156;50.908;6.974;2023-03-04T10:52:35;6.60;99.90
8231;DHT22;4156;50.908;6.974;2023-03-04T10:55:05;6.60;99.90
8231;DHT22;4156;50.908;6.974;2023-03-04T10:57:40;6.60;99.90
8231;DHT22;4156;50.908;6.974;2023-03-04T11:00:25;6.70;99.90
8231;DHT22;4156;50.908;6.974;2023-03-04T11:02:51;6.70;99.90
8231;DHT22;4156;50.908;6.974;2023-03-04T11:05:19;6.70;99.90
8231;DHT22;4156;50.908;6.974;2023-03-04T11:07:52;6.70;99.90
8231;DHT22;4156;50.908;6.974;2023-03-04T11:10:56;6.70;99.90
8231;DHT22;4156;50.908;6.974;2023-03-04T11:13:21;6.70;99.90
8231;DHT22;4156;50.908;6.974;2023-03-04T11:16:02;6.70;99.90
8231;DHT22;4156;50.908;6.974;2023-03-04T11:18:42;6.80;99.90
8231;DHT22;4156;50.908;6.974;2023-03-04T11:21:21;6.80;99.90
8231;DHT22;4156;50.908;6.974;2023-03-04T11:23:52;6.80;99.90
8231;DHT22;4156;50.908;6.974;2023-03-04T11:26:24;6.80;99.90
8231;DHT22;4156;50.908;6.974;2023-03-04T11:31:48;6.80;99.90
8231;DHT22;4156;50.908;6.974;2023-03-04T11:35:13;6.80;99.90
8231;DHT22;4156;50.908;6.974;2023-03-04T11:37:26;6.80;99.90
8231;DHT22;4156;50.908;6.974;2023-03-04T11:42:41;6.90;99.90
8231;DHT22;4156;50.908;6.974;2023-03-04T11:45:15;6.90;99.90
8231;DHT22;4156;50.908;6.974;2023-03-04T11:48:11;6.90;99.90
8231;DHT22;4156;50.908;6.974;2023-03-04T11:53:28;6.90;99.90
8231;DHT22;4156;50.908;6.974;2023-03-04T11:59:17;7.00;99.90
8231;DHT22;4156;50.908;6.974;2023-03-04T12:04:19;7.00;99.90
8231;DHT22;4156;50.908;6.974;2023-03-04T12:10:05;7.00;99.90
8231;DHT22;4156;50.908;6.974;2023-03-04T12:13:05;7.00;99.90
8231;DHT22;4156;50.908;6.974;2023-03-04T12:18:41;7.00;99.90
8231;DHT22;4156;50.908;6.974;2023-03-04T12:21:25;7.00;99.90
8231;DHT22;4156;50.908;6.974;2023-03-04T12:27:09;7.00;99.90
8231;DHT22;4156;50.908;6.974;2023-03-04T12:32:31;7.10;99.90
8231;DHT22;4156;50.908;6.974;2023-03-04T12:35:21;7.10;99.90
8231;DHT22;4156;50.908;6.974;2023-03-04T12:46:10;7.10;99.90
8231;DHT22;4156;50.908;6.974;2023-03-04T12:53:46;7.20;99.90
8231;DHT22;4156;50.908;6.974;2023-03-04T12:59:16;7.20;99.90
8231;DHT22;4156;50.908;6.974;2023-03-04T13:04:29;7.20;99.90
8231;DHT22;4156;50.908;6.974;2023-03-04T13:10:05;7.30;99.90
8231;DHT22;4156;50.908;6.974;2023-03-04T13:12:56;7.30;99.90
8231;DHT22;4156;50.908;6.974;2023-03-04T13:17:52;7.30;99.90
8231;DHT22;4156;50.908;6.974;2023-03-04T13:20:38;7.30;99.90
8231;DHT22;4156;50.908;6.974;2023-03-04T13:25:43;7.30;99.90
8231;DHT22;4156;50.908;6.974;2023-03-04T13:30:42;7.30;99.90
8231;DHT22;4156;50.908;6.974;2023-03-04T13:36:04;7.40;99.90
8231;DHT22;4156;50.908;6.974;2023-03-04T13:38:32;7.40;99.90
8231;DHT22;4156;50.908;6.974;2023-03-04T13:41:15;7.40;99.90
8231;DHT22;4156;50.908;6.974;2023-03-04T13:46:28;7.50;99.90
8231;DHT22;4156;50.908;6.974;2023-03-04T13:51:39;7.50;99.90
8231;DHT22;4156;50.908;6.974;2023-03-04T13:54:29;7.50;99.90
8231;DHT22;4156;50.908;6.974;2023-03-04T13:57:17;7.50;99.90
8231;DHT22;4156;50.908;6.974;2023-03-04T13:59:48;7.50;99.90
8231;DHT22;4156;50.908;6.974;2023-03-04T14:02:16;7.50;99.90
8231;DHT22;4156;50.908;6.974;2023-03-04T14:07:27;7.50;99.90
8231;DHT22;4156;50.908;6.974;2023-03-04T14:09:58;7.50;99.90
8231;DHT22;4156;50.908;6.974;2023-03-04T14:12:29;7.50;99.90
8231;DHT22;4156;50.908;6.974;2023-03-04T14:17:32;7.60;99.90
8231;DHT22;4156;50.908;6.974;2023-03-04T14:19:59;7.50;99.90
8231;DHT22;4156;50.908;6.974;2023-03-04T14:22:28;7.60;99.90
8231;DHT22;4156;50.908;6.974;2023-03-04T14:25:00;7.60;99.90
8231;DHT22;4156;50.908;6.974;2023-03-04T14:27:27;7.60;99.90
8231;DHT22;4156;50.908;6.974;2023-03-04T14:29:55;7.60;99.90
8231;DHT22;4156;50.908;6.974;2023-03-04T14:32:22;7.60;99.90
8231;DHT22;4156;50.908;6.974;2023-03-04T14:34:48;7.60;99.90
8231;DHT22;4156;50.908;6.974;2023-03-04T14:37:41;7.60;99.90
8231;DHT22;4156;50.908;6.974;2023-03-04T14:40:19;7.70;99.90
8231;DHT22;4156;50.908;6.974;2023-03-04T14:42:45;7.70;99.90
8231;DHT22;4156;50.908;6.974;2023-03-04T14:45:14;7.70;99.90
8231;DHT22;4156;50.908;6.974;2023-03-04T14:47:43;7.70;99.90
8231;DHT22;4156;50.908;6.974;2023-03-04T14:50:17;7.70;99.90
8231;DHT22;4156;50.908;6.974;2023-03-04T14:52:46;7.70;99.90
8231;DHT22;4156;50.908;6.974;2023-03-04T14:55:24;7.70;99.90
8231;DHT22;4156;50.908;6.974;2023-03-04T14:58:24;7.70;99.90
8231;DHT22;4156;50.908;6.974;2023-03-04T15:03:31;7.70;99.90
8231;DHT22;4156;50.908;6.974;2023-03-04T15:06:21;7.70;99.90
8231;DHT22;4156;50.908;6.974;2023-03-04T15:08:54;7.80;99.90
8231;DHT22;4156;50.908;6.974;2023-03-04T15:11:24;7.70;99.90
8231;DHT22;4156;50.908;6.974;2023-03-04T15:13:52;7.70;99.90
8231;DHT22;4156;50.908;6.974;2023-03-04T15:16:21;7.80;99.90
8231;DHT22;4156;50.908;6.974;2023-03-04T15:19:25;7.80;99.90
8231;DHT22;4156;50.908;6.974;2023-03-04T15:22:02;7.80;99.90
8231;DHT22;4156;50.908;6.974;2023-03-04T15:24:28;7.80;99.90
8231;DHT22;4156;50.908;6.974;2023-03-04T15:26:54;7.80;99.90
8231;DHT22;4156;50.908;6.974;2023-03-04T15:29:19;7.80;99.90
8231;DHT22;4156;50.908;6.974;2023-03-04T15:31:46;7.80;99.90
8231;DHT22;4156;50.908;6.974;2023-03-04T15:34:17;7.80;99.90
8231;DHT22;4156;50.908;6.974;2023-03-04T15:36:46;7.80;99.90
8231;DHT22;4156;50.908;6.974;2023-03-04T15:39:14;7.80;99.90
8231;DHT22;4156;50.908;6.974;2023-03-04T15:41:41;7.80;99.90
8231;DHT22;4156;50.908;6.974;2023-03-04T15:44:06;7.80;99.90
8231;DHT22;4156;50.908;6.974;2023-03-04T15:46:32;7.80;99.90
8231;DHT22;4156;50.908;6.974;2023-03-04T15:48:57;7.80;99.90
8231;DHT22;4156;50.908;6.974;2023-03-04T15:51:23;7.80;99.90
8231;DHT22;4156;50.908;6.974;2023-03-04T15:53:55;7.80;99.90
8231;DHT22;4156;50.908;6.974;2023-03-04T15:56:26;7.80;99.90
8231;DHT22;4156;50.908;6.974;2023-03-04T15:59:03;7.90;99.90
8231;DHT22;4156;50.908;6.974;2023-03-04T16:01:28;7.80;99.90
8231;DHT22;4156;50.908;6.974;2023-03-04T16:03:54;7.80;99.90
8231;DHT22;4156;50.908;6.974;2023-03-04T16:06:28;7.90;99.90
8231;DHT22;4156;50.908;6.974;2023-03-04T16:08:54;7.90;99.90
8231;DHT22;4156;50.908;6.974;2023-03-04T16:11:27;7.90;99.90
8231;DHT22;4156;50.908;6.974;2023-03-04T16:13:53;7.90;99.90
8231;DHT22;4156;50.908;6.974;2023-03-04T16:16:19;7.90;99.90
8231;DHT22;4156;50.908;6.974;2023-03-04T16:18:45;7.90;99.90
8231;DHT22;4156;50.908;6.974;2023-03-04T16:21:14;7.90;99.90
8231;DHT22;4156;50.908;6.974;2023-03-04T16:23:42;7.90;99.90
8231;DHT22;4156;50.908;6.974;2023-03-04T16:26:12;7.90;99.90
8231;DHT22;4156;50.908;6.974;2023-03-04T16:28:38;7.90;99.90
8231;DHT22;4156;50.908;6.974;2023-03-04T16:31:04;7.90;99.90
8231;DHT22;4156;50.908;6.974;2023-03-04T16:33:30;7.90;99.90
8231;DHT22;4156;50.908;6.974;2023-03-04T16:35:55;7.90;99.90
8231;DHT22;4156;50.908;6.974;2023-03-04T16:38:27;7.90;99.90
8231;DHT22;4156;50.908;6.974;2023-03-04T16:40:54;7.90;99.90
8231;DHT22;4156;50.908;6.974;2023-03-04T16:43:21;7.90;99.90
8231;DHT22;4156;50.908;6.974;2023-03-04T16:45:46;7.90;99.90
8231;DHT22;4156;50.908;6.974;2023-03-04T16:48:13;7.90;99.90
8231;DHT22;4156;50.908;6.974;2023-03-04T16:50:39;7.90;99.90
8231;DHT22;4156;50.908;6.974;2023-03-04T16:53:28;7.80;99.90
8231;DHT22;4156;50.908;6.974;2023-03-04T16:55:57;7.90;99.90
8231;DHT22;4156;50.908;6.974;2023-03-04T16:58:25;7.90;99.90
8231;DHT22;4156;50.908;6.974;2023-03-04T17:00:51;7.90;99.90
8231;DHT22;4156;50.908;6.974;2023-03-04T17:03:16;7.90;99.90
8231;DHT22;4156;50.908;6.974;2023-03-04T17:05:42;7.90;99.90
8231;DHT22;4156;50.908;6.974;2023-03-04T17:08:08;7.90;99.90
8231;DHT22;4156;50.908;6.974;2023-03-04T17:10:34;7.90;99.90
8231;DHT22;4156;50.908;6.974;2023-03-04T17:13:00;7.90;99.90
8231;DHT22;4156;50.908;6.974;2023-03-04T17:15:25;7.90;99.90
8231;DHT22;4156;50.908;6.974;2023-03-04T17:17:51;7.80;99.90
8231;DHT22;4156;50.908;6.974;2023-03-04T17:20:18;7.80;99.90
8231;DHT22;4156;50.908;6.974;2023-03-04T17:22:44;7.80;99.90
8231;DHT22;4156;50.908;6.974;2023-03-04T17:25:11;7.80;99.90
8231;DHT22;4156;50.908;6.974;2023-03-04T17:27:36;7.80;99.90
8231;DHT22;4156;50.908;6.974;2023-03-04T17:30:04;7.80;99.90
8231;DHT22;4156;50.908;6.974;2023-03-04T17:32:31;7.80;99.90
8231;DHT22;4156;50.908;6.974;2023-03-04T17:34:57;7.80;99.90
8231;DHT22;4156;50.908;6.974;2023-03-04T17:37:23;7.80;99.90
8231;DHT22;4156;50.908;6.974;2023-03-04T17:39:48;7.80;99.90
8231;DHT22;4156;50.908;6.974;2023-03-04T17:42:14;7.80;99.90
8231;DHT22;4156;50.908;6.974;2023-03-04T17:44:39;7.80;99.90
8231;DHT22;4156;50.908;6.974;2023-03-04T17:47:05;7.80;99.90
8231;DHT22;4156;50.908;6.974;2023-03-04T17:49:31;7.80;99.90
8231;DHT22;4156;50.908;6.974;2023-03-04T17:51:59;7.80;99.90
8231;DHT22;4156;50.908;6.974;2023-03-04T17:54:25;7.90;99.90
8231;DHT22;4156;50.908;6.974;2023-03-04T17:56:51;7.80;99.90
8231;DHT22;4156;50.908;6.974;2023-03-04T17:59:16;7.80;99.90